sensor_id;sensor_type;location;lat;lon;timestamp;pressure;altitude;pressure_sealevel;temperature;humidity
55315;BME280;41619;42.816;23.226;2023-06-01T04:39:46;95747.66;;;12.95;83.92
55315;BME280;41619;42.816;23.226;2023-06-01T04:42:16;95740.94;;;12.93;83.74
55315;BME280;41619;42.816;23.226;2023-06-01T04:44:42;95735.88;;;12.95;83.75
55315;BME280;41619;42.816;23.226;2023-06-01T04:47:10;95741.38;;;12.95;83.99
55315;BME280;41619;42.816;23.226;2023-06-01T04:49:35;95747.25;;;12.93;83.79
55315;BME280;41619;42.816;23.226;2023-06-01T04:52:02;95740.53;;;12.91;83.46
55315;BME280;41619;42.816;23.226;2023-06-01T04:54:29;95747.19;;;12.90;83.65
55315;BME280;41619;42.816;23.226;2023-06-01T04:56:55;95746.81;;;12.91;83.86
55315;BME280;41619;42.816;23.226;2023-06-01T04:59:20;95746.13;;;12.98;83.68
55315;BME280;41619;42.816;23.226;2023-06-01T05:01:46;95747.81;;;13.06;83.82
55315;BME280;41619;42.816;23.226;2023-06-01T05:04:11;95741.97;;;13.11;83.87
55315;BME280;41619;42.816;23.226;2023-06-01T05:06:37;95737.69;;;13.14;83.71
55315;BME280;41619;42.816;23.226;2023-06-01T05:09:02;95739.25;;;13.15;83.65
55315;BME280;41619;42.816;23.226;2023-06-01T05:11:30;95744.75;;;13.15;83.96
55315;BME280;41619;42.816;23.226;2023-06-01T05:13:55;95747.13;;;13.16;83.71
55315;BME280;41619;42.816;23.226;2023-06-01T05:16:26;95738.16;;;13.19;83.83
55315;BME280;41619;42.816;23.226;2023-06-01T05:18:52;95742.13;;;13.22;83.74
55315;BME280;41619;42.816;23.226;2023-06-01T05:21:17;95739.38;;;13.22;83.60
55315;BME280;41619;42.816;23.226;2023-06-01T05:23:43;95739.38;;;13.22;83.70
55315;BME280;41619;42.816;23.226;2023-06-01T05:26:08;95738.63;;;13.25;83.52
55315;BME280;41619;42.816;23.226;2023-06-01T05:28:34;95746.13;;;13.28;83.69
55315;BME280;41619;42.816;23.226;2023-06-01T05:31:01;95744.50;;;13.23;83.33
55315;BME280;41619;42.816;23.226;2023-06-01T05:33:27;95746.84;;;13.21;83.85
55315;BME280;41619;42.816;23.226;2023-06-01T05:35:52;95742.13;;;13.22;84.02
55315;BME280;41619;42.816;23.226;2023-06-01T05:38:18;95752.41;;;13.28;83.56
55315;BME280;41619;42.816;23.226;2023-06-01T05:40:44;95745.41;;;13.34;83.54
55315;BME280;41619;42.816;23.226;2023-06-01T05:43:10;95749.06;;;13.46;83.54
55315;BME280;41619;42.816;23.226;2023-06-01T05:45:35;95750.34;;;13.55;83.56
55315;BME280;41619;42.816;23.226;2023-06-01T05:48:02;95746.53;;;13.67;83.45
55315;BME280;41619;42.816;23.226;2023-06-01T05:50:27;95745.91;;;13.81;83.50
55315;BME280;41619;42.816;23.226;2023-06-01T05:52:52;95749.97;;;13.98;83.30
55315;BME280;41619;42.816;23.226;2023-06-01T05:55:18;95750.09;;;14.12;83.35
55315;BME280;41619;42.816;23.226;2023-06-01T05:57:44;95749.78;;;14.20;82.99
55315;BME280;41619;42.816;23.226;2023-06-01T06:00:11;95754.56;;;14.31;82.80
55315;BME280;41619;42.816;23.226;2023-06-01T06:02:39;95753.47;;;14.39;82.96
55315;BME280;41619;42.816;23.226;2023-06-01T06:05:05;95750.38;;;14.44;82.60
55315;BME280;41619;42.816;23.226;2023-06-01T06:07:31;95750.00;;;14.49;82.58
55315;BME280;41619;42.816;23.226;2023-06-01T06:09:56;95748.91;;;14.57;82.30
55315;BME280;41619;42.816;23.226;2023-06-01T06:12:22;95748.91;;;14.61;82.32
55315;BME280;41619;42.816;23.226;2023-06-01T06:14:47;95750.88;;;14.60;81.71
55315;BME280;41619;42.816;23.226;2023-06-01T06:17:14;95756.78;;;14.62;82.36
55315;BME280;41619;42.816;23.226;2023-06-01T06:19:39;95756.00;;;14.65;82.21
55315;BME280;41619;42.816;23.226;2023-06-01T06:22:05;95751.34;;;14.69;82.11
55315;BME280;41619;42.816;23.226;2023-06-01T06:24:30;95750.19;;;14.74;82.08
55315;BME280;41619;42.816;23.226;2023-06-01T06:26:56;95752.16;;;14.77;81.80
55315;BME280;41619;42.816;23.226;2023-06-01T06:29:21;95756.91;;;14.80;81.85
55315;BME280;41619;42.816;23.226;2023-06-01T06:31:46;95755.72;;;14.84;81.80
55315;BME280;41619;42.816;23.226;2023-06-01T06:34:14;95757.75;;;14.91;81.42
55315;BME280;41619;42.816;23.226;2023-06-01T06:36:39;95752.66;;;15.00;81.31
55315;BME280;41619;42.816;23.226;2023-06-01T06:39:05;95760.59;;;15.09;81.21
55315;BME280;41619;42.816;23.226;2023-06-01T06:41:30;95754.72;;;15.21;80.90
55315;BME280;41619;42.816;23.226;2023-06-01T06:43:56;95764.63;;;15.29;80.83
55315;BME280;41619;42.816;23.226;2023-06-01T06:46:22;95759.91;;;15.33;80.46
55315;BME280;41619;42.816;23.226;2023-06-01T06:48:48;95759.91;;;15.37;80.32
55315;BME280;41619;42.816;23.226;2023-06-01T06:51:13;95749.28;;;15.42;80.41
55315;BME280;41619;42.816;23.226;2023-06-01T06:53:39;95756.44;;;15.54;80.06
55315;BME280;41619;42.816;23.226;2023-06-01T06:56:04;95759.66;;;15.70;79.79
55315;BME280;41619;42.816;23.226;2023-06-01T06:58:29;95759.69;;;15.85;79.51
55315;BME280;41619;42.816;23.226;2023-06-01T07:00:55;95755.75;;;15.96;78.98
55315;BME280;41619;42.816;23.226;2023-06-01T07:03:21;95761.69;;;16.13;78.51
55315;BME280;41619;42.816;23.226;2023-06-01T07:05:46;95761.69;;;16.30;78.32
55315;BME280;41619;42.816;23.226;2023-06-01T07:08:12;95752.22;;;16.42;78.05
55315;BME280;41619;42.816;23.226;2023-06-01T07:10:38;95751.41;;;16.52;78.04
55315;BME280;41619;42.816;23.226;2023-06-01T07:13:03;95745.09;;;16.66;77.55
55315;BME280;41619;42.816;23.226;2023-06-01T07:15:29;95739.97;;;16.79;77.52
55315;BME280;41619;42.816;23.226;2023-06-01T07:17:54;95742.72;;;16.93;76.94
55315;BME280;41619;42.816;23.226;2023-06-01T07:20:20;95735.97;;;17.01;76.73
55315;BME280;41619;42.816;23.226;2023-06-01T07:22:45;95736.72;;;17.05;76.25
55315;BME280;41619;42.816;23.226;2023-06-01T07:25:11;95740.28;;;17.09;76.17
55315;BME280;41619;42.816;23.226;2023-06-01T07:27:39;95738.69;;;17.15;76.03
55315;BME280;41619;42.816;23.226;2023-06-01T07:30:08;95736.69;;;17.19;75.87
55315;BME280;41619;42.816;23.226;2023-06-01T07:32:34;95735.88;;;17.26;75.59
55315;BME280;41619;42.816;23.226;2023-06-01T07:35:00;95731.50;;;17.32;75.72
55315;BME280;41619;42.816;23.226;2023-06-01T07:37:27;95729.47;;;17.43;75.49
55315;BME280;41619;42.816;23.226;2023-06-01T07:39:55;95725.44;;;17.59;75.18
55315;BME280;41619;42.816;23.226;2023-06-01T07:42:21;95722.22;;;17.74;74.98
55315;BME280;41619;42.816;23.226;2023-06-01T07:44:46;95728.81;;;17.95;74.80
55315;BME280;41619;42.816;23.226;2023-06-01T07:47:12;95715.16;;;18.18;74.39
55315;BME280;41619;42.816;23.226;2023-06-01T07:49:37;95712.63;;;18.41;73.67
55315;BME280;41619;42.816;23.226;2023-06-01T07:52:04;95707.28;;;18.61;73.03
55315;BME280;41619;42.816;23.226;2023-06-01T07:54:30;95703.53;;;18.82;72.64
55315;BME280;41619;42.816;23.226;2023-06-01T07:56:56;95708.84;;;19.03;71.79
55315;BME280;41619;42.816;23.226;2023-06-01T07:59:22;95704.59;;;19.26;71.37
55315;BME280;41619;42.816;23.226;2023-06-01T08:01:51;95700.72;;;19.54;71.03
55315;BME280;41619;42.816;23.226;2023-06-01T08:04:20;95699.25;;;19.73;70.39
55315;BME280;41619;42.816;23.226;2023-06-01T08:06:46;95698.22;;;19.90;69.88
55315;BME280;41619;42.816;23.226;2023-06-01T08:09:12;95694.34;;;20.07;69.40
55315;BME280;41619;42.816;23.226;2023-06-01T08:11:37;95692.13;;;20.22;69.12
55315;BME280;41619;42.816;23.226;2023-06-01T08:14:03;95689.47;;;20.38;68.56
55315;BME280;41619;42.816;23.226;2023-06-01T08:16:30;95685.28;;;20.53;68.31
55315;BME280;41619;42.816;23.226;2023-06-01T08:18:56;95684.59;;;20.69;67.97
55315;BME280;41619;42.816;23.226;2023-06-01T08:21:22;95678.13;;;20.76;67.00
55315;BME280;41619;42.816;23.226;2023-06-01T08:23:48;95687.13;;;20.83;66.30
55315;BME280;41619;42.816;23.226;2023-06-01T08:26:16;95674.56;;;20.95;65.79
55315;BME280;41619;42.816;23.226;2023-06-01T08:28:42;95671.50;;;21.09;66.11
55315;BME280;41619;42.816;23.226;2023-06-01T08:31:08;95672.50;;;21.19;65.22
55315;BME280;41619;42.816;23.226;2023-06-01T08:33:33;95666.88;;;21.23;64.31
55315;BME280;41619;42.816;23.226;2023-06-01T08:35:59;95665.44;;;21.34;64.34
55315;BME280;41619;42.816;23.226;2023-06-01T08:38:24;95657.94;;;21.51;63.56
55315;BME280;41619;42.816;23.226;2023-06-01T08:40:53;95669.63;;;21.62;62.65
55315;BME280;41619;42.816;23.226;2023-06-01T08:43:20;95656.66;;;21.72;61.67
55315;BME280;41619;42.816;23.226;2023-06-01T08:45:46;95659.09;;;21.70;60.84
55315;BME280;41619;42.816;23.226;2023-06-01T08:48:18;95662.97;;;21.76;60.30
55315;BME280;41619;42.816;23.226;2023-06-01T08:50:47;95651.03;;;21.92;60.54
55315;BME280;41619;42.816;23.226;2023-06-01T08:53:17;95656.03;;;22.17;60.86
55315;BME280;41619;42.816;23.226;2023-06-01T08:55:44;95650.38;;;22.36;59.84
55315;BME280;41619;42.816;23.226;2023-06-01T08:58:12;95649.69;;;22.32;58.66
55315;BME280;41619;42.816;23.226;2023-06-01T09:00:38;95645.50;;;22.24;58.53
55315;BME280;41619;42.816;23.226;2023-06-01T09:03:04;95633.66;;;22.20;58.49
55315;BME280;41619;42.816;23.226;2023-06-01T09:05:29;95645.16;;;22.22;59.54
55315;BME280;41619;42.816;23.226;2023-06-01T09:07:55;95631.56;;;22.24;59.04
55315;BME280;41619;42.816;23.226;2023-06-01T09:10:24;95632.34;;;22.25;58.86
55315;BME280;41619;42.816;23.226;2023-06-01T09:12:51;95631.31;;;22.19;58.18
55315;BME280;41619;42.816;23.226;2023-06-01T09:15:19;95635.75;;;22.16;57.66
55315;BME280;41619;42.816;23.226;2023-06-01T09:17:49;95627.19;;;22.23;57.83
55315;BME280;41619;42.816;23.226;2023-06-01T09:20:28;95627.63;;;22.38;57.63
55315;BME280;41619;42.816;23.226;2023-06-01T09:22:54;95624.47;;;22.52;57.10
55315;BME280;41619;42.816;23.226;2023-06-01T09:25:28;95614.13;;;22.65;57.82
55315;BME280;41619;42.816;23.226;2023-06-01T09:27:55;95624.72;;;22.87;57.38
55315;BME280;41619;42.816;23.226;2023-06-01T09:30:23;95617.22;;;23.13;56.76
55315;BME280;41619;42.816;23.226;2023-06-01T09:32:49;95615.59;;;23.28;55.72
55315;BME280;41619;42.816;23.226;2023-06-01T09:35:47;95613.34;;;23.36;54.72
55315;BME280;41619;42.816;23.226;2023-06-01T09:38:25;95603.44;;;23.47;55.43
55315;BME280;41619;42.816;23.226;2023-06-01T09:41:02;95604.88;;;23.52;54.46
55315;BME280;41619;42.816;23.226;2023-06-01T09:43:28;95608.78;;;23.42;53.57
55315;BME280;41619;42.816;23.226;2023-06-01T09:46:11;95599.50;;;23.32;52.96
55315;BME280;41619;42.816;23.226;2023-06-01T09:48:39;95598.63;;;23.35;53.61
55315;BME280;41619;42.816;23.226;2023-06-01T09:51:20;95588.81;;;23.43;52.31
55315;BME280;41619;42.816;23.226;2023-06-01T09:53:46;95584.22;;;23.49;52.03
55315;BME280;41619;42.816;23.226;2023-06-01T09:56:12;95576.06;;;23.55;51.10
55315;BME280;41619;42.816;23.226;2023-06-01T09:58:37;95570.47;;;23.55;52.00
55315;BME280;41619;42.816;23.226;2023-06-01T10:01:06;95571.28;;;23.68;52.23
55315;BME280;41619;42.816;23.226;2023-06-01T10:03:34;95562.44;;;23.82;51.65
55315;BME280;41619;42.816;23.226;2023-06-01T10:06:02;95572.34;;;23.96;51.89
55315;BME280;41619;42.816;23.226;2023-06-01T10:08:29;95561.63;;;24.07;51.05
55315;BME280;41619;42.816;23.226;2023-06-01T10:10:56;95557.13;;;24.10;50.35
55315;BME280;41619;42.816;23.226;2023-06-01T10:13:21;95554.66;;;24.12;50.60
55315;BME280;41619;42.816;23.226;2023-06-01T10:15:53;95556.97;;;24.26;51.08
55315;BME280;41619;42.816;23.226;2023-06-01T10:18:19;95559.63;;;24.42;50.76
55315;BME280;41619;42.816;23.226;2023-06-01T10:20:46;95549.63;;;24.54;50.02
55315;BME280;41619;42.816;23.226;2023-06-01T10:23:12;95558.09;;;24.63;48.98
55315;BME280;41619;42.816;23.226;2023-06-01T10:25:43;95555.50;;;24.69;47.96
55315;BME280;41619;42.816;23.226;2023-06-01T10:28:12;95556.81;;;24.77;48.16
55315;BME280;41619;42.816;23.226;2023-06-01T10:30:39;95556.25;;;24.91;48.42
55315;BME280;41619;42.816;23.226;2023-06-01T10:33:05;95550.81;;;25.10;48.20
55315;BME280;41619;42.816;23.226;2023-06-01T10:40:40;95539.00;;;25.46;46.03
55315;BME280;41619;42.816;23.226;2023-06-01T10:43:07;95537.91;;;25.43;45.16
55315;BME280;41619;42.816;23.226;2023-06-01T10:47:59;95528.56;;;25.46;45.82
55315;BME280;41619;42.816;23.226;2023-06-01T10:50:25;95528.22;;;25.66;45.50
55315;BME280;41619;42.816;23.226;2023-06-01T10:52:51;95517.84;;;25.85;45.26
55315;BME280;41619;42.816;23.226;2023-06-01T10:57:46;95519.28;;;26.17;42.54
55315;BME280;41619;42.816;23.226;2023-06-01T11:05:47;95509.50;;;26.58;41.21
55315;BME280;41619;42.816;23.226;2023-06-01T11:13:26;95499.03;;;26.86;40.32
55315;BME280;41619;42.816;23.226;2023-06-01T11:21:18;95482.31;;;26.92;41.34
55315;BME280;41619;42.816;23.226;2023-06-01T11:23:45;95484.34;;;27.09;40.81
55315;BME280;41619;42.816;23.226;2023-06-01T11:26:14;95479.00;;;27.21;40.98
55315;BME280;41619;42.816;23.226;2023-06-01T11:28:41;95467.72;;;27.30;40.84
55315;BME280;41619;42.816;23.226;2023-06-01T11:31:12;95470.44;;;27.48;40.64
55315;BME280;41619;42.816;23.226;2023-06-01T11:33:39;95463.50;;;27.67;39.95
55315;BME280;41619;42.816;23.226;2023-06-01T11:36:06;95469.00;;;27.86;39.68
55315;BME280;41619;42.816;23.226;2023-06-01T11:38:38;95461.78;;;27.94;38.90
55315;BME280;41619;42.816;23.226;2023-06-01T11:41:04;95454.13;;;27.94;39.13
55315;BME280;41619;42.816;23.226;2023-06-01T11:43:32;95445.13;;;28.05;38.07
55315;BME280;41619;42.816;23.226;2023-06-01T11:46:02;95448.97;;;28.17;38.10
55315;BME280;41619;42.816;23.226;2023-06-01T11:48:28;95450.59;;;28.09;37.96
55315;BME280;41619;42.816;23.226;2023-06-01T11:50:54;95453.47;;;27.99;38.12
55315;BME280;41619;42.816;23.226;2023-06-01T11:53:21;95456.50;;;27.87;37.33
55315;BME280;41619;42.816;23.226;2023-06-01T11:55:56;95449.75;;;27.69;37.85
55315;BME280;41619;42.816;23.226;2023-06-01T11:58:25;95451.47;;;27.34;38.04
55315;BME280;41619;42.816;23.226;2023-06-01T12:00:52;95460.97;;;27.03;38.50
55315;BME280;41619;42.816;23.226;2023-06-01T12:03:17;95461.47;;;26.74;38.89
55315;BME280;41619;42.816;23.226;2023-06-01T12:05:43;95459.00;;;26.49;39.53
55315;BME280;41619;42.816;23.226;2023-06-01T12:08:18;95455.41;;;26.03;39.12
55315;BME280;41619;42.816;23.226;2023-06-01T12:10:45;95447.84;;;25.63;40.21
55315;BME280;41619;42.816;23.226;2023-06-01T12:13:13;95441.09;;;25.42;40.42
55315;BME280;41619;42.816;23.226;2023-06-01T12:15:38;95441.19;;;25.20;39.84
55315;BME280;41619;42.816;23.226;2023-06-01T12:18:04;95444.88;;;24.86;40.08
55315;BME280;41619;42.816;23.226;2023-06-01T12:20:41;95435.28;;;24.65;40.02
55315;BME280;41619;42.816;23.226;2023-06-01T12:25:56;95446.91;;;23.98;39.51
55315;BME280;41619;42.816;23.226;2023-06-01T12:28:24;95441.31;;;23.51;39.98
55315;BME280;41619;42.816;23.226;2023-06-01T12:31:09;95442.34;;;23.19;40.55
55315;BME280;41619;42.816;23.226;2023-06-01T12:33:36;95438.56;;;23.00;40.72
55315;BME280;41619;42.816;23.226;2023-06-01T12:36:02;95440.44;;;22.78;41.49
55315;BME280;41619;42.816;23.226;2023-06-01T12:38:37;95430.59;;;22.60;40.94
55315;BME280;41619;42.816;23.226;2023-06-01T12:41:11;95427.75;;;22.48;41.43
55315;BME280;41619;42.816;23.226;2023-06-01T12:43:37;95435.13;;;22.42;42.75
55315;BME280;41619;42.816;23.226;2023-06-01T12:46:04;95433.56;;;22.41;42.57
55315;BME280;41619;42.816;23.226;2023-06-01T12:48:36;95423.28;;;22.38;42.79
55315;BME280;41619;42.816;23.226;2023-06-01T12:51:02;95431.09;;;22.43;43.08
55315;BME280;41619;42.816;23.226;2023-06-01T12:53:29;95433.78;;;22.46;43.12
55315;BME280;41619;42.816;23.226;2023-06-01T12:55:54;95430.00;;;22.40;43.21
55315;BME280;41619;42.816;23.226;2023-06-01T12:58:20;95429.44;;;22.32;43.28
55315;BME280;41619;42.816;23.226;2023-06-01T13:00:45;95425.94;;;22.28;42.99
55315;BME280;41619;42.816;23.226;2023-06-01T13:03:11;95428.72;;;22.28;43.01
55315;BME280;41619;42.816;23.226;2023-06-01T13:05:36;95426.63;;;22.32;42.98
55315;BME280;41619;42.816;23.226;2023-06-01T13:08:02;95434.56;;;22.47;42.85
55315;BME280;41619;42.816;23.226;2023-06-01T13:10:28;95436.38;;;22.53;42.50
55315;BME280;41619;42.816;23.226;2023-06-01T13:12:54;95425.31;;;22.50;42.70
55315;BME280;41619;42.816;23.226;2023-06-01T13:15:21;95426.44;;;22.52;42.82
55315;BME280;41619;42.816;23.226;2023-06-01T13:17:46;95422.44;;;22.53;43.07
55315;BME280;41619;42.816;23.226;2023-06-01T13:20:12;95422.31;;;22.57;43.61
55315;BME280;41619;42.816;23.226;2023-06-01T13:22:41;95424.13;;;22.63;43.69
55315;BME280;41619;42.816;23.226;2023-06-01T13:25:07;95423.34;;;22.76;44.05
55315;BME280;41619;42.816;23.226;2023-06-01T13:27:34;95419.13;;;22.84;44.25
55315;BME280;41619;42.816;23.226;2023-06-01T13:29:59;95418.59;;;22.89;44.99
55315;BME280;41619;42.816;23.226;2023-06-01T13:32:26;95424.84;;;22.93;45.03
55315;BME280;41619;42.816;23.226;2023-06-01T13:34:52;95409.22;;;22.95;45.10
55315;BME280;41619;42.816;23.226;2023-06-01T13:37:17;95401.63;;;22.96;45.18
55315;BME280;41619;42.816;23.226;2023-06-01T13:39:43;95394.03;;;22.96;45.32
55315;BME280;41619;42.816;23.226;2023-06-01T13:42:08;95390.47;;;22.96;45.47
55315;BME280;41619;42.816;23.226;2023-06-01T13:44:34;95393.69;;;22.94;46.01
55315;BME280;41619;42.816;23.226;2023-06-01T13:46:59;95386.22;;;22.91;46.13
55315;BME280;41619;42.816;23.226;2023-06-01T13:49:24;95383.75;;;22.93;46.86
55315;BME280;41619;42.816;23.226;2023-06-01T13:51:50;95385.13;;;22.89;47.45
55315;BME280;41619;42.816;23.226;2023-06-01T13:54:16;95381.19;;;22.86;47.40
55315;BME280;41619;42.816;23.226;2023-06-01T13:56:41;95386.75;;;22.86;47.20
55315;BME280;41619;42.816;23.226;2023-06-01T13:59:07;95375.72;;;22.83;46.88
55315;BME280;41619;42.816;23.226;2023-06-01T14:01:32;95384.50;;;22.81;47.21
55315;BME280;41619;42.816;23.226;2023-06-01T14:03:57;95394.09;;;22.80;46.84
55315;BME280;41619;42.816;23.226;2023-06-01T14:06:23;95395.00;;;22.77;46.48
55315;BME280;41619;42.816;23.226;2023-06-01T14:08:48;95399.13;;;22.73;47.08
55315;BME280;41619;42.816;23.226;2023-06-01T14:11:14;95410.84;;;22.67;47.76
55315;BME280;41619;42.816;23.226;2023-06-01T14:13:39;95410.59;;;22.62;48.09
55315;BME280;41619;42.816;23.226;2023-06-01T14:16:05;95415.97;;;22.56;48.23
55315;BME280;41619;42.816;23.226;2023-06-01T14:18:30;95419.31;;;22.51;48.28
55315;BME280;41619;42.816;23.226;2023-06-01T14:20:56;95428.22;;;22.46;48.80
55315;BME280;41619;42.816;23.226;2023-06-01T14:23:22;95427.19;;;22.40;48.51
55315;BME280;41619;42.816;23.226;2023-06-01T14:25:47;95428.72;;;22.28;49.21
55315;BME280;41619;42.816;23.226;2023-06-01T14:28:12;95424.47;;;22.24;49.61
55315;BME280;41619;42.816;23.226;2023-06-01T14:30:38;95428.59;;;22.19;50.10
55315;BME280;41619;42.816;23.226;2023-06-01T14:33:05;95427.47;;;22.17;50.36
55315;BME280;41619;42.816;23.226;2023-06-01T14:35:31;95424.34;;;22.15;50.60
55315;BME280;41619;42.816;23.226;2023-06-01T14:37:58;95425.13;;;22.15;50.68
55315;BME280;41619;42.816;23.226;2023-06-01T14:40:23;95420.25;;;22.19;50.56
55315;BME280;41619;42.816;23.226;2023-06-01T14:42:49;95418.91;;;22.24;50.68
55315;BME280;41619;42.816;23.226;2023-06-01T14:45:14;95417.56;;;22.28;50.69
55315;BME280;41619;42.816;23.226;2023-06-01T14:47:41;95413.47;;;22.33;50.32
55315;BME280;41619;42.816;23.226;2023-06-01T14:50:07;95410.13;;;22.38;50.32
55315;BME280;41619;42.816;23.226;2023-06-01T14:52:32;95408.81;;;22.43;50.32
55315;BME280;41619;42.816;23.226;2023-06-01T14:54:58;95410.03;;;22.42;50.34
55315;BME280;41619;42.816;23.226;2023-06-01T14:57:23;95418.06;;;22.40;50.51
55315;BME280;41619;42.816;23.226;2023-06-01T14:59:49;95415.03;;;22.34;50.50
55315;BME280;41619;42.816;23.226;2023-06-01T15:02:14;95413.22;;;22.27;50.48
55315;BME280;41619;42.816;23.226;2023-06-01T15:04:40;95418.56;;;22.22;50.38
55315;BME280;41619;42.816;23.226;2023-06-01T15:07:05;95414.78;;;22.16;50.40
55315;BME280;41619;42.816;23.226;2023-06-01T15:09:31;95418.97;;;22.08;50.91
55315;BME280;41619;42.816;23.226;2023-06-01T15:11:56;95417.13;;;22.01;50.72
55315;BME280;41619;42.816;23.226;2023-06-01T15:14:22;95417.75;;;21.92;51.00
55315;BME280;41619;42.816;23.226;2023-06-01T15:16:47;95420.75;;;21.85;51.23
55315;BME280;41619;42.816;23.226;2023-06-01T15:19:13;95422.50;;;21.79;51.12
55315;BME280;41619;42.816;23.226;2023-06-01T15:21:38;95419.22;;;21.68;50.84
55315;BME280;41619;42.816;23.226;2023-06-01T15:24:04;95416.72;;;21.57;50.70
55315;BME280;41619;42.816;23.226;2023-06-01T15:26:30;95414.22;;;21.46;50.80
55315;BME280;41619;42.816;23.226;2023-06-01T15:28:55;95407.69;;;21.37;50.75
55315;BME280;41619;42.816;23.226;2023-06-01T15:31:21;95409.78;;;21.33;51.06
55315;BME280;41619;42.816;23.226;2023-06-01T15:33:46;95407.09;;;21.29;50.98
55315;BME280;41619;42.816;23.226;2023-06-01T15:36:12;95403.19;;;21.27;51.07
55315;BME280;41619;42.816;23.226;2023-06-01T15:38:39;95412.81;;;21.22;51.69
55315;BME280;41619;42.816;23.226;2023-06-01T15:41:06;95403.25;;;21.23;51.54
55315;BME280;41619;42.816;23.226;2023-06-01T15:43:34;95411.66;;;21.20;51.79
55315;BME280;41619;42.816;23.226;2023-06-01T15:46:01;95409.75;;;21.16;51.85
55315;BME280;41619;42.816;23.226;2023-06-01T15:48:26;95412.97;;;21.15;52.01
55315;BME280;41619;42.816;23.226;2023-06-01T15:50:51;95411.84;;;21.12;52.12
55315;BME280;41619;42.816;23.226;2023-06-01T15:53:17;95413.59;;;21.06;51.73
55315;BME280;41619;42.816;23.226;2023-06-01T15:55:44;95411.75;;;21.00;51.61
55315;BME280;41619;42.816;23.226;2023-06-01T15:58:10;95411.06;;;20.96;51.58
55315;BME280;41619;42.816;23.226;2023-06-01T16:00:36;95410.28;;;20.95;51.50
55315;BME280;41619;42.816;23.226;2023-06-01T16:03:01;95407.16;;;20.93;51.46
55315;BME280;41619;42.816;23.226;2023-06-01T16:05:26;95408.00;;;20.90;51.48
55315;BME280;41619;42.816;23.226;2023-06-01T16:07:52;95406.09;;;20.87;51.19
55315;BME280;41619;42.816;23.226;2023-06-01T16:10:18;95412.53;;;20.84;51.29
55315;BME280;41619;42.816;23.226;2023-06-01T16:12:43;95407.41;;;20.82;51.26
55315;BME280;41619;42.816;23.226;2023-06-01T16:15:09;95403.91;;;20.78;51.47
55315;BME280;41619;42.816;23.226;2023-06-01T16:17:35;95404.00;;;20.75;51.34
55315;BME280;41619;42.816;23.226;2023-06-01T16:20:01;95404.44;;;20.73;51.26
55315;BME280;41619;42.816;23.226;2023-06-01T16:22:27;95394.97;;;20.71;51.46
55315;BME280;41619;42.816;23.226;2023-06-01T16:24:52;95398.16;;;20.69;51.54
55315;BME280;41619;42.816;23.226;2023-06-01T16:27:18;95384.69;;;20.68;51.34
55315;BME280;41619;42.816;23.226;2023-06-01T16:29:43;95391.47;;;20.67;51.59
55315;BME280;41619;42.816;23.226;2023-06-01T16:32:09;95391.91;;;20.65;51.97
55315;BME280;41619;42.816;23.226;2023-06-01T16:34:34;95392.31;;;20.64;51.96
55315;BME280;41619;42.816;23.226;2023-06-01T16:37:00;95385.28;;;20.59;51.81
55315;BME280;41619;42.816;23.226;2023-06-01T16:39:25;95390.94;;;20.55;51.91
55315;BME280;41619;42.816;23.226;2023-06-01T16:41:51;95386.66;;;20.51;51.90
55315;BME280;41619;42.816;23.226;2023-06-01T16:44:16;95392.31;;;20.47;52.10
55315;BME280;41619;42.816;23.226;2023-06-01T16:46:42;95388.03;;;20.43;51.97
55315;BME280;41619;42.816;23.226;2023-06-01T16:49:07;95388.50;;;20.38;51.97
55315;BME280;41619;42.816;23.226;2023-06-01T16:51:32;95393.38;;;20.34;52.11
55315;BME280;41619;42.816;23.226;2023-06-01T16:53:58;95394.31;;;20.27;52.41
55315;BME280;41619;42.816;23.226;2023-06-01T16:56:24;95393.59;;;20.23;52.11
55315;BME280;41619;42.816;23.226;2023-06-01T16:58:49;95391.31;;;20.18;52.98
55315;BME280;41619;42.816;23.226;2023-06-01T17:01:15;95390.25;;;20.12;53.04
55315;BME280;41619;42.816;23.226;2023-06-01T17:03:40;95392.75;;;20.06;53.22
55315;BME280;41619;42.816;23.226;2023-06-01T17:06:06;95388.91;;;20.00;53.51
55315;BME280;41619;42.816;23.226;2023-06-01T17:08:32;95382.66;;;19.96;53.64
55315;BME280;41619;42.816;23.226;2023-06-01T17:10:57;95388.72;;;19.91;53.65
55315;BME280;41619;42.816;23.226;2023-06-01T17:13:22;95390.41;;;19.85;53.85
55315;BME280;41619;42.816;23.226;2023-06-01T17:15:48;95388.56;;;19.78;54.13
55315;BME280;41619;42.816;23.226;2023-06-01T17:18:13;95387.84;;;19.74;54.67
55315;BME280;41619;42.816;23.226;2023-06-01T17:20:39;95392.31;;;19.68;55.07
55315;BME280;41619;42.816;23.226;2023-06-01T17:23:07;95387.25;;;19.63;55.19
55315;BME280;41619;42.816;23.226;2023-06-01T17:25:32;95390.97;;;19.56;55.61
55315;BME280;41619;42.816;23.226;2023-06-01T17:27:58;95388.25;;;19.49;55.87
55315;BME280;41619;42.816;23.226;2023-06-01T17:32:48;95373.09;;;19.34;56.77
55315;BME280;41619;42.816;23.226;2023-06-01T17:35:14;95379.53;;;19.27;56.89
55315;BME280;41619;42.816;23.226;2023-06-01T17:37:40;95376.47;;;19.22;57.41
55315;BME280;41619;42.816;23.226;2023-06-01T17:40:06;95373.41;;;19.16;57.52
55315;BME280;41619;42.816;23.226;2023-06-01T17:42:32;95375.88;;;19.11;57.69
55315;BME280;41619;42.816;23.226;2023-06-01T17:44:57;95378.78;;;19.03;57.81
55315;BME280;41619;42.816;23.226;2023-06-01T17:47:22;95379.25;;;18.98;58.49
55315;BME280;41619;42.816;23.226;2023-06-01T17:49:49;95383.69;;;18.92;58.52
55315;BME280;41619;42.816;23.226;2023-06-01T17:52:15;95376.66;;;18.88;58.63
55315;BME280;41619;42.816;23.226;2023-06-01T17:54:40;95383.09;;;18.81;58.68
55315;BME280;41619;42.816;23.226;2023-06-01T17:57:05;95391.16;;;18.72;58.59